createdAt,value
2023-10-07T00:00:49.955Z,2.30
2023-10-07T00:01:49.914Z,2.30
2023-10-07T00:02:49.936Z,2.30
2023-10-07T00:03:49.822Z,2.40
2023-10-07T00:04:49.826Z,2.20
2023-10-07T00:05:49.794Z,2.60
2023-10-07T00:06:50.817Z,2.30
2023-10-07T00:07:49.796Z,2.00
2023-10-07T00:08:49.848Z,2.60
2023-10-07T00:09:49.728Z,2.10
2023-10-07T00:10:50.863Z,2.30
2023-10-07T00:11:49.706Z,2.50
2023-10-07T00:12:49.732Z,2.20
2023-10-07T00:13:49.693Z,2.30
2023-10-07T00:14:49.687Z,2.30
2023-10-07T00:15:49.649Z,2.70
2023-10-07T00:16:49.775Z,2.40
2023-10-07T00:17:49.669Z,2.30
2023-10-07T00:18:49.670Z,2.50
2023-10-07T00:19:49.696Z,2.10
2023-10-07T00:20:49.643Z,2.60
2023-10-07T00:21:49.586Z,2.70
2023-10-07T00:22:49.696Z,2.30
2023-10-07T00:23:49.547Z,2.20
2023-10-07T00:24:49.622Z,2.30
2023-10-07T00:25:49.552Z,2.40
2023-10-07T00:26:49.576Z,2.20
2023-10-07T00:27:49.493Z,2.20
2023-10-07T00:28:49.623Z,2.20
2023-10-07T00:29:49.459Z,2.20
2023-10-07T00:30:49.660Z,2.30
2023-10-07T00:31:49.498Z,2.10
2023-10-07T00:32:49.550Z,2.70
2023-10-07T00:33:49.478Z,2.30
2023-10-07T00:34:49.472Z,2.20
2023-10-07T00:35:49.393Z,2.60
2023-10-07T00:36:49.619Z,2.20
2023-10-07T00:37:49.411Z,2.40
2023-10-07T00:38:49.376Z,2.50
2023-10-07T00:39:49.316Z,2.70
2023-10-07T00:40:49.420Z,2.50
2023-10-07T00:41:49.298Z,2.20
2023-10-07T00:42:49.344Z,2.40
2023-10-07T00:43:49.322Z,2.30
2023-10-07T00:44:49.379Z,2.30
2023-10-07T00:45:49.271Z,2.90
2023-10-07T00:46:49.405Z,2.50
2023-10-07T00:47:49.268Z,2.50
2023-10-07T00:48:49.308Z,2.40
2023-10-07T00:49:49.200Z,2.70
2023-10-07T00:50:49.238Z,2.50
2023-10-07T00:51:49.167Z,2.30
2023-10-07T00:52:49.284Z,2.60
2023-10-07T00:53:49.134Z,2.40
2023-10-07T00:54:49.224Z,2.30
2023-10-07T00:55:49.174Z,2.20
2023-10-07T00:56:49.186Z,2.50
2023-10-07T00:57:49.137Z,2.40
2023-10-07T00:58:49.099Z,2.50
2023-10-07T00:59:49.058Z,2.40
2023-10-07T01:00:49.169Z,2.20
2023-10-07T01:01:49.127Z,2.30
2023-10-07T01:02:49.151Z,2.40
2023-10-07T01:03:49.055Z,2.30
2023-10-07T01:04:49.135Z,2.20
2023-10-07T01:05:49.033Z,2.50
2023-10-07T01:06:48.997Z,2.10
2023-10-07T01:07:49.029Z,2.40
2023-10-07T01:08:48.961Z,2.30
2023-10-07T01:09:48.943Z,2.30
2023-10-07T01:10:50.055Z,2.30
2023-10-07T01:11:48.905Z,2.40
2023-10-07T01:12:48.945Z,2.40
2023-10-07T01:13:48.944Z,2.20
2023-10-07T01:14:49.921Z,2.20
2023-10-07T01:15:48.856Z,2.40
2023-10-07T01:16:48.947Z,2.20
2023-10-07T01:17:49.150Z,2.10
2023-10-07T01:18:48.890Z,2.30
2023-10-07T01:19:48.832Z,2.40
2023-10-07T01:20:48.837Z,2.20
2023-10-07T01:21:48.754Z,2.30
2023-10-07T01:22:48.886Z,2.40
2023-10-07T01:23:48.751Z,2.60
2023-10-07T01:24:48.876Z,2.70
2023-10-07T01:25:48.765Z,2.30
2023-10-07T01:27:11.785Z,2.70
2023-10-07T01:27:48.793Z,2.30
2023-10-07T01:28:48.801Z,2.60
2023-10-07T01:29:48.660Z,2.40
2023-10-07T01:30:48.916Z,2.20
2023-10-07T01:31:48.661Z,2.60
2023-10-07T01:32:48.868Z,2.50
2023-10-07T01:33:48.773Z,2.10
2023-10-07T01:34:48.695Z,2.40
2023-10-07T01:35:48.573Z,2.40
2023-10-07T01:36:48.618Z,2.70
2023-10-07T01:37:48.564Z,2.20
2023-10-07T01:38:48.583Z,2.50
2023-10-07T01:39:48.531Z,2.60
2023-10-07T01:40:48.645Z,2.30
2023-10-07T01:41:48.490Z,2.20
2023-10-07T01:42:48.546Z,2.40
2023-10-07T01:43:48.469Z,2.10
2023-10-07T01:44:48.516Z,2.20
2023-10-07T01:45:48.446Z,2.20
2023-10-07T01:46:48.598Z,2.30
2023-10-07T01:47:48.470Z,2.40
2023-10-07T01:48:48.494Z,2.90
2023-10-07T01:49:48.414Z,2.40
2023-10-07T01:50:48.444Z,2.20
2023-10-07T01:51:48.351Z,2.60
2023-10-07T01:52:48.484Z,2.40
2023-10-07T01:53:48.333Z,2.70
2023-10-07T01:54:48.432Z,2.30
2023-10-07T01:55:48.355Z,2.60
2023-10-07T01:56:49.316Z,2.70
2023-10-07T01:57:48.280Z,2.50
2023-10-07T01:58:48.318Z,2.50
2023-10-07T01:59:48.245Z,2.40
2023-10-07T02:00:48.400Z,2.50
2023-10-07T02:01:48.249Z,2.40
2023-10-07T02:02:48.298Z,2.60
2023-10-07T02:03:48.219Z,2.60
2023-10-07T02:04:48.304Z,2.30
2023-10-07T02:05:48.194Z,2.30
2023-10-07T02:06:48.212Z,2.50
2023-10-07T02:07:48.167Z,2.50
2023-10-07T02:08:48.182Z,2.50
2023-10-07T02:09:48.115Z,2.40
2023-10-07T02:10:48.221Z,2.30
2023-10-07T02:11:48.113Z,2.40
2023-10-07T02:12:48.174Z,2.40
2023-10-07T02:13:48.092Z,2.40
2023-10-07T02:14:48.109Z,2.30
2023-10-07T02:15:48.078Z,2.50
2023-10-07T02:16:48.182Z,2.30
2023-10-07T02:17:48.121Z,2.40
2023-10-07T02:18:48.129Z,2.30
2023-10-07T02:19:48.038Z,2.60
2023-10-07T02:20:48.051Z,2.40
2023-10-07T02:21:47.950Z,2.10
2023-10-07T02:22:48.024Z,2.50
2023-10-07T02:23:47.937Z,2.40
2023-10-07T02:24:48.032Z,2.20
2023-10-07T02:25:47.901Z,2.30
2023-10-07T02:26:48.000Z,2.70
2023-10-07T02:27:47.877Z,2.50
2023-10-07T02:28:47.987Z,2.30
2023-10-07T02:29:47.852Z,2.60
2023-10-07T02:30:47.944Z,2.20
2023-10-07T02:31:47.861Z,2.60
2023-10-07T02:32:47.854Z,2.10
2023-10-07T02:33:47.804Z,2.60
2023-10-07T02:34:47.865Z,2.70
2023-10-07T02:35:47.765Z,2.30
2023-10-07T02:36:47.828Z,2.20
2023-10-07T02:37:47.774Z,2.40
2023-10-07T02:38:47.784Z,2.30
2023-10-07T02:39:50.694Z,2.50
2023-10-07T02:40:47.748Z,2.30
2023-10-07T02:42:09.760Z,2.20
2023-10-07T02:42:47.684Z,2.40
2023-10-07T02:43:47.752Z,2.50
2023-10-07T02:44:47.639Z,2.40
2023-10-07T02:45:47.730Z,2.40
2023-10-07T02:46:47.678Z,2.50
2023-10-07T02:47:47.696Z,2.50
2023-10-07T02:48:47.578Z,2.40
2023-10-07T02:49:47.682Z,2.20
2023-10-07T02:50:47.552Z,2.30
2023-10-07T02:51:47.558Z,2.50
2023-10-07T02:52:47.548Z,2.60
2023-10-07T02:53:47.622Z,2.50
2023-10-07T02:54:47.498Z,2.20
2023-10-07T02:55:47.654Z,2.50
2023-10-07T02:56:47.468Z,2.40
2023-10-07T02:57:47.507Z,2.30
2023-10-07T02:58:47.458Z,2.40
2023-10-07T02:59:47.476Z,2.40
2023-10-07T03:00:47.436Z,2.50
2023-10-07T03:01:47.480Z,2.60
2023-10-07T03:02:47.515Z,2.40
2023-10-07T03:03:47.521Z,2.80
2023-10-07T03:04:47.429Z,2.40
2023-10-07T03:05:49.459Z,2.50
2023-10-07T03:06:47.337Z,2.40
2023-10-07T03:07:47.383Z,2.60
2023-10-07T03:08:47.328Z,2.40
2023-10-07T03:09:47.386Z,2.40
2023-10-07T03:10:47.322Z,2.40
2023-10-07T03:11:47.445Z,2.90
2023-10-07T03:12:47.256Z,2.10
2023-10-07T03:13:47.490Z,2.30
2023-10-07T03:14:47.228Z,2.50
2023-10-07T03:15:47.241Z,2.50
2023-10-07T03:16:47.458Z,2.20
2023-10-07T03:17:47.485Z,2.40
2023-10-07T03:18:47.170Z,2.60
2023-10-07T03:19:47.313Z,2.50
2023-10-07T03:20:47.184Z,2.50
2023-10-07T03:21:47.170Z,2.40
2023-10-07T03:22:47.203Z,2.30
2023-10-07T03:23:47.491Z,2.60
2023-10-07T03:24:47.090Z,2.60
2023-10-07T03:25:47.106Z,2.40
2023-10-07T03:26:47.095Z,2.40
2023-10-07T03:27:47.105Z,2.50
2023-10-07T03:28:47.065Z,2.20
2023-10-07T03:29:47.112Z,2.30
2023-10-07T03:30:47.032Z,2.60
2023-10-07T03:31:47.072Z,2.50
2023-10-07T03:32:47.045Z,2.60
2023-10-07T03:33:47.091Z,2.40
2023-10-07T03:34:47.374Z,2.30
2023-10-07T03:35:47.045Z,2.50
2023-10-07T03:36:46.986Z,2.60
2023-10-07T03:37:47.026Z,2.50
2023-10-07T03:38:46.909Z,2.30
2023-10-07T03:39:47.018Z,2.40
2023-10-07T03:40:46.931Z,2.40
2023-10-07T03:41:46.960Z,2.90
2023-10-07T03:42:46.849Z,2.60
2023-10-07T03:43:46.979Z,2.50
2023-10-07T03:44:46.819Z,2.50
2023-10-07T03:45:46.878Z,2.50
2023-10-07T03:46:46.865Z,2.40
2023-10-07T03:47:46.920Z,2.40
2023-10-07T03:48:46.761Z,2.30
2023-10-07T03:49:46.898Z,2.50
2023-10-07T03:50:46.737Z,2.60
2023-10-07T03:51:46.772Z,2.30
2023-10-07T03:52:46.730Z,2.30
2023-10-07T03:53:46.763Z,2.30
2023-10-07T03:54:46.686Z,2.40
2023-10-07T03:55:46.712Z,2.60
2023-10-07T03:56:46.661Z,2.40
2023-10-07T03:57:46.713Z,2.40
2023-10-07T03:58:46.680Z,2.40
2023-10-07T03:59:46.735Z,2.40
2023-10-07T04:00:46.603Z,2.50
2023-10-07T04:01:46.758Z,2.40
2023-10-07T04:02:46.703Z,2.60
2023-10-07T04:03:46.670Z,2.80
2023-10-07T04:04:46.598Z,2.40
2023-10-07T04:05:46.625Z,2.20
2023-10-07T04:06:46.536Z,2.20
2023-10-07T04:07:46.607Z,2.30
2023-10-07T04:08:46.518Z,3.10
2023-10-07T04:09:46.597Z,2.40
2023-10-07T04:10:46.519Z,2.70
2023-10-07T04:11:46.559Z,2.40
2023-10-07T04:12:46.446Z,2.40
2023-10-07T04:13:46.568Z,2.40
2023-10-07T04:14:46.425Z,2.40
2023-10-07T04:15:46.427Z,2.40
2023-10-07T04:16:46.499Z,2.20
2023-10-07T04:17:46.666Z,2.60
2023-10-07T04:18:46.367Z,2.60
2023-10-07T04:19:46.494Z,2.40
2023-10-07T04:20:46.338Z,2.40
2023-10-07T04:21:46.400Z,2.30
2023-10-07T04:22:46.330Z,2.30
2023-10-07T04:23:46.346Z,2.30
2023-10-07T04:24:46.289Z,2.40
2023-10-07T04:25:46.329Z,2.50
2023-10-07T04:26:46.256Z,2.10
2023-10-07T04:27:46.319Z,2.50
2023-10-07T04:28:46.262Z,2.50
2023-10-07T04:29:46.432Z,2.70
2023-10-07T04:30:46.264Z,2.40
2023-10-07T04:31:46.364Z,2.30
2023-10-07T04:32:46.300Z,2.60
2023-10-07T04:33:46.259Z,2.40
2023-10-07T04:34:46.152Z,2.30
2023-10-07T04:35:46.256Z,2.00
2023-10-07T04:36:46.127Z,2.30
2023-10-07T04:37:46.200Z,2.30
2023-10-07T04:38:46.101Z,2.00
2023-10-07T04:39:46.203Z,2.60
2023-10-07T04:40:46.096Z,2.20
2023-10-07T04:41:46.177Z,2.40
2023-10-07T04:42:46.081Z,2.50
2023-10-07T04:43:46.203Z,2.50
2023-10-07T04:44:46.434Z,2.40
2023-10-07T04:45:46.067Z,2.20
2023-10-07T04:46:46.022Z,2.40
2023-10-07T04:47:46.142Z,2.10
2023-10-07T04:48:45.967Z,2.70
2023-10-07T04:49:46.111Z,2.70
2023-10-07T04:50:45.939Z,2.30
2023-10-07T04:51:45.981Z,2.50
2023-10-07T04:52:45.943Z,2.40
2023-10-07T04:53:46.089Z,2.40
2023-10-07T04:54:45.907Z,2.20
2023-10-07T04:55:46.952Z,2.20
2023-10-07T04:56:45.859Z,2.40
2023-10-07T04:57:46.155Z,2.30
2023-10-07T04:58:45.862Z,2.60
2023-10-07T04:59:45.891Z,2.30
2023-10-07T05:00:45.800Z,2.30
2023-10-07T05:01:45.910Z,2.10
2023-10-07T05:02:45.869Z,2.40
2023-10-07T05:03:45.886Z,2.40
2023-10-07T05:04:45.814Z,2.30
2023-10-07T05:05:45.824Z,2.60
2023-10-07T05:06:45.746Z,2.40
2023-10-07T05:07:45.857Z,2.50
2023-10-07T05:08:45.698Z,2.30
2023-10-07T05:09:45.815Z,2.30
2023-10-07T05:10:45.730Z,2.30
2023-10-07T05:11:47.713Z,2.50
2023-10-07T05:12:45.647Z,2.50
2023-10-07T05:13:45.758Z,2.30
2023-10-07T05:14:45.633Z,2.10
2023-10-07T05:15:45.650Z,2.30
2023-10-07T05:16:45.725Z,3.00
2023-10-07T05:17:45.733Z,2.40
2023-10-07T05:18:45.575Z,2.00
2023-10-07T05:19:45.731Z,2.40
2023-10-07T05:20:45.560Z,2.20
2023-10-07T05:21:45.602Z,2.30
2023-10-07T05:22:45.565Z,2.20
2023-10-07T05:23:45.564Z,2.40
2023-10-07T05:24:45.492Z,2.20
2023-10-07T05:25:45.557Z,2.60
2023-10-07T05:26:45.466Z,2.30
2023-10-07T05:27:46.227Z,2.00
2023-10-07T05:28:45.453Z,2.20
2023-10-07T05:29:45.502Z,2.40
2023-10-07T05:30:45.413Z,2.30
2023-10-07T05:31:45.533Z,2.00
2023-10-07T05:32:45.490Z,2.00
2023-10-07T05:33:45.507Z,2.30
2023-10-07T05:34:45.387Z,2.20
2023-10-07T05:35:45.429Z,2.10
2023-10-07T05:36:45.414Z,2.30
2023-10-07T05:37:45.520Z,2.20
2023-10-07T05:38:45.315Z,2.40
2023-10-07T05:39:46.342Z,2.20
2023-10-07T05:40:45.364Z,2.10
2023-10-07T05:41:46.412Z,2.10
2023-10-07T05:42:45.273Z,2.50
2023-10-07T05:43:45.505Z,2.50
2023-10-07T05:44:45.273Z,2.10
2023-10-07T05:45:45.326Z,2.10
2023-10-07T05:46:45.291Z,2.10
2023-10-07T05:47:45.410Z,2.20
2023-10-07T05:48:45.185Z,2.10
2023-10-07T05:49:45.228Z,2.40
2023-10-07T05:50:45.159Z,2.30
2023-10-07T05:51:45.224Z,2.10
2023-10-07T05:52:45.225Z,2.20
2023-10-07T05:53:45.230Z,1.90
2023-10-07T05:54:45.104Z,1.90
2023-10-07T05:55:45.273Z,2.10
2023-10-07T05:56:45.081Z,2.10
2023-10-07T05:57:45.244Z,2.10
2023-10-07T05:58:45.087Z,1.90
2023-10-07T05:59:45.112Z,2.10
2023-10-07T06:00:45.026Z,2.10
2023-10-07T06:01:45.122Z,2.20
2023-10-07T06:02:45.136Z,2.00
2023-10-07T06:03:45.112Z,2.00
2023-10-07T06:04:45.011Z,2.00
2023-10-07T06:05:47.659Z,1.90
2023-10-07T06:06:44.948Z,2.10
2023-10-07T06:07:45.078Z,2.10
2023-10-07T06:08:51.071Z,2.20
2023-10-07T06:09:47.730Z,2.10
2023-10-07T06:10:44.913Z,2.10
2023-10-07T06:11:45.023Z,2.40
2023-10-07T06:12:44.862Z,1.80
2023-10-07T06:13:45.017Z,2.20
2023-10-07T06:14:44.887Z,2.10
2023-10-07T06:15:44.923Z,2.10
2023-10-07T06:16:44.833Z,1.90
2023-10-07T06:17:44.962Z,2.10
2023-10-07T06:18:44.849Z,2.10
2023-10-07T06:19:45.043Z,2.30
2023-10-07T06:20:44.749Z,2.00
2023-10-07T06:21:45.830Z,2.00
2023-10-07T06:22:44.803Z,2.00
2023-10-07T06:23:44.824Z,2.20
2023-10-07T06:24:44.719Z,2.20
2023-10-07T06:25:44.780Z,2.20
2023-10-07T06:26:44.675Z,2.00
2023-10-07T06:27:44.754Z,2.10
2023-10-07T06:28:44.671Z,1.90
2023-10-07T06:29:44.784Z,2.10
2023-10-07T06:30:44.632Z,1.80
2023-10-07T06:31:44.712Z,2.20
2023-10-07T06:32:44.783Z,2.10
2023-10-07T06:33:44.697Z,2.00
2023-10-07T06:34:44.617Z,1.90
2023-10-07T06:35:44.656Z,1.90
2023-10-07T06:36:44.561Z,2.10
2023-10-07T06:37:45.702Z,2.20
2023-10-07T06:38:44.538Z,2.00
2023-10-07T06:39:44.562Z,2.00
2023-10-07T06:40:44.513Z,2.00
2023-10-07T06:41:44.601Z,2.10
2023-10-07T06:42:44.498Z,2.30
2023-10-07T06:43:44.578Z,2.20
2023-10-07T06:44:44.450Z,2.10
2023-10-07T06:45:45.525Z,2.10
2023-10-07T06:46:44.430Z,1.90
2023-10-07T06:47:44.562Z,2.10
2023-10-07T06:48:44.409Z,1.90
2023-10-07T06:49:44.471Z,1.90
2023-10-07T06:50:44.358Z,1.90
2023-10-07T06:51:44.417Z,2.70
2023-10-07T06:52:44.358Z,2.00
2023-10-07T06:53:44.793Z,2.30
2023-10-07T06:54:56.318Z,2.10
2023-10-07T06:55:45.320Z,1.90
2023-10-07T06:56:44.289Z,2.00
2023-10-07T06:57:44.489Z,2.10
2023-10-07T06:58:44.274Z,2.10
2023-10-07T06:59:44.316Z,2.30
2023-10-07T07:00:44.228Z,1.90
2023-10-07T07:01:44.314Z,2.10
2023-10-07T07:02:44.243Z,2.10
2023-10-07T07:03:44.457Z,1.60
2023-10-07T07:04:46.498Z,2.00
2023-10-07T07:05:49.580Z,1.80
2023-10-07T07:06:44.293Z,2.20
2023-10-07T07:07:46.490Z,2.40
2023-10-07T07:08:44.144Z,2.10
2023-10-07T07:09:44.148Z,2.10
2023-10-07T07:10:44.134Z,1.90
2023-10-07T07:11:44.203Z,2.10
2023-10-07T07:12:44.079Z,2.40
2023-10-07T07:13:44.180Z,2.10
2023-10-07T07:14:44.064Z,1.90
2023-10-07T07:15:44.070Z,2.10
2023-10-07T07:16:44.021Z,2.20
2023-10-07T07:17:44.049Z,2.00
2023-10-07T07:18:43.984Z,1.90
2023-10-07T07:19:44.012Z,1.90
2023-10-07T07:20:43.972Z,2.30
2023-10-07T07:21:44.008Z,1.80
2023-10-07T07:22:44.303Z,1.90
2023-10-07T07:23:43.985Z,1.90
2023-10-07T07:24:43.941Z,2.00
2023-10-07T07:25:43.984Z,2.00
2023-10-07T07:26:43.890Z,1.80
2023-10-07T07:27:43.939Z,2.00
2023-10-07T07:28:44.222Z,2.20
2023-10-07T07:29:43.927Z,2.00
2023-10-07T07:30:43.835Z,1.90
2023-10-07T07:31:43.887Z,1.80
2023-10-07T07:32:43.808Z,2.00
2023-10-07T07:33:44.822Z,2.00
2023-10-07T07:34:43.778Z,2.10
2023-10-07T07:35:43.862Z,1.70
2023-10-07T07:36:43.748Z,1.80
2023-10-07T07:37:43.841Z,1.90
2023-10-07T07:38:43.719Z,1.90
2023-10-07T07:39:43.726Z,2.00
2023-10-07T07:40:43.786Z,1.90
2023-10-07T07:41:43.793Z,1.80
2023-10-07T07:42:43.670Z,1.70
2023-10-07T07:43:43.787Z,1.80
2023-10-07T07:44:43.665Z,2.00
2023-10-07T07:45:43.666Z,1.80
2023-10-07T07:46:43.680Z,1.90
2023-10-07T07:47:43.776Z,2.10
2023-10-07T07:48:43.644Z,2.20
2023-10-07T07:49:43.604Z,1.90
2023-10-07T07:50:43.562Z,1.70
2023-10-07T07:51:43.610Z,1.90
2023-10-07T07:52:43.533Z,2.00
2023-10-07T07:53:43.630Z,2.00
2023-10-07T07:54:43.524Z,2.00
2023-10-07T07:55:43.553Z,1.80
2023-10-07T07:56:43.580Z,1.90
2023-10-07T07:57:44.578Z,2.00
2023-10-07T07:58:43.464Z,2.20
2023-10-07T07:59:43.524Z,1.90
2023-10-07T08:00:43.415Z,1.80
2023-10-07T08:01:43.492Z,1.70
2023-10-07T08:02:43.543Z,2.30
2023-10-07T08:03:43.628Z,2.20
2023-10-07T08:04:43.638Z,2.20
2023-10-07T08:05:43.528Z,1.90
2023-10-07T08:06:43.344Z,2.80
2023-10-07T08:07:43.435Z,2.10
2023-10-07T08:08:43.319Z,2.60
2023-10-07T08:09:43.344Z,2.00
2023-10-07T08:10:43.318Z,2.30
2023-10-07T08:11:43.410Z,2.00
2023-10-07T08:12:43.262Z,2.20
2023-10-07T08:13:43.400Z,2.10
2023-10-07T08:14:43.241Z,2.20
2023-10-07T08:15:43.298Z,2.10
2023-10-07T08:16:43.310Z,2.10
2023-10-07T08:17:43.414Z,2.00
2023-10-07T08:18:43.228Z,2.20
2023-10-07T08:19:43.210Z,2.00
2023-10-07T08:20:43.160Z,2.00
2023-10-07T08:21:43.211Z,1.80
2023-10-07T08:22:43.165Z,1.80
2023-10-07T08:23:43.204Z,2.20
2023-10-07T08:24:43.108Z,1.70
2023-10-07T08:25:43.146Z,2.20
2023-10-07T08:26:43.133Z,1.90
2023-10-07T08:27:43.155Z,1.80
2023-10-07T08:28:43.081Z,2.30
2023-10-07T08:29:43.123Z,2.10
2023-10-07T08:30:43.027Z,2.10
2023-10-07T08:31:43.148Z,2.10
2023-10-07T08:32:43.150Z,2.10
2023-10-07T08:33:43.097Z,1.90
2023-10-07T08:34:43.012Z,1.90
2023-10-07T08:35:43.071Z,1.90
2023-10-07T08:36:42.968Z,1.90
2023-10-07T08:37:43.061Z,1.80
2023-10-07T08:38:42.920Z,1.80
2023-10-07T08:39:42.942Z,2.00
2023-10-07T08:40:42.936Z,2.30
2023-10-07T08:41:43.004Z,2.00
2023-10-07T08:42:42.878Z,2.00
2023-10-07T08:43:42.912Z,1.70
2023-10-07T08:44:42.839Z,1.80
2023-10-07T08:45:42.889Z,1.80
2023-10-07T08:46:42.988Z,1.60
2023-10-07T08:47:42.946Z,2.00
2023-10-07T08:48:42.792Z,1.90
2023-10-07T08:49:42.830Z,1.70
2023-10-07T08:50:42.778Z,2.10
2023-10-07T08:51:42.823Z,2.10
2023-10-07T08:52:42.793Z,1.90
2023-10-07T08:53:43.820Z,2.00
2023-10-07T08:54:42.717Z,1.90
2023-10-07T08:55:42.772Z,2.20
2023-10-07T08:56:42.695Z,1.70
2023-10-07T08:57:42.796Z,2.20
2023-10-07T08:58:42.699Z,1.90
2023-10-07T08:59:42.741Z,1.70
2023-10-07T09:00:42.677Z,1.90
2023-10-07T09:01:42.718Z,2.10
2023-10-07T09:02:42.726Z,1.90
2023-10-07T09:03:46.256Z,1.90
2023-10-07T09:04:43.302Z,1.60
2023-10-07T09:05:42.729Z,1.90
2023-10-07T09:06:44.132Z,1.90
2023-10-07T09:07:42.676Z,1.70
2023-10-07T09:08:42.545Z,2.10
2023-10-07T09:09:42.551Z,1.70
2023-10-07T09:10:42.518Z,1.80
2023-10-07T09:11:42.618Z,1.80
2023-10-07T09:12:42.469Z,1.90
2023-10-07T09:13:43.359Z,2.00
2023-10-07T09:14:42.446Z,1.70
2023-10-07T09:15:42.483Z,1.80
2023-10-07T09:16:42.537Z,1.70
2023-10-07T09:17:42.546Z,1.90
2023-10-07T09:18:42.926Z,1.90
2023-10-07T09:19:42.428Z,1.90
2023-10-07T09:20:42.362Z,1.70
2023-10-07T09:21:42.427Z,1.70
2023-10-07T09:22:42.374Z,2.20
2023-10-07T09:23:42.397Z,1.90
2023-10-07T09:24:42.309Z,1.80
2023-10-07T09:25:42.357Z,2.10
2023-10-07T09:26:42.286Z,2.20
2023-10-07T09:27:42.373Z,1.80
2023-10-07T09:28:42.269Z,1.70
2023-10-07T09:29:42.336Z,1.80
2023-10-07T09:30:42.277Z,1.90
2023-10-07T09:31:43.329Z,1.80
2023-10-07T09:32:42.249Z,2.00
2023-10-07T09:33:42.209Z,1.90
2023-10-07T09:34:42.200Z,1.70
2023-10-07T09:35:42.282Z,1.80
2023-10-07T09:36:42.159Z,2.00
2023-10-07T09:37:42.245Z,1.70
2023-10-07T09:38:42.130Z,1.60
2023-10-07T09:39:44.601Z,1.60
2023-10-07T09:40:42.125Z,1.90
2023-10-07T09:41:42.228Z,1.80
2023-10-07T09:42:42.080Z,2.00
2023-10-07T09:43:42.108Z,2.10
2023-10-07T09:44:42.047Z,2.00
2023-10-07T09:45:42.086Z,1.80
2023-10-07T09:46:42.220Z,1.90
2023-10-07T09:47:42.163Z,1.80
2023-10-07T09:48:42.040Z,1.80
2023-10-07T09:49:42.097Z,2.10
2023-10-07T09:50:41.968Z,1.60
2023-10-07T09:51:42.029Z,2.00
2023-10-07T09:52:42.011Z,1.90
2023-10-07T09:53:42.069Z,1.90
2023-10-07T09:54:41.925Z,2.10
2023-10-07T09:55:43.002Z,1.80
2023-10-07T09:56:41.891Z,1.80
2023-10-07T09:57:41.966Z,1.40
2023-10-07T09:58:41.916Z,1.50
2023-10-07T09:59:41.941Z,2.20
2023-10-07T10:00:41.831Z,1.70
2023-10-07T10:01:41.951Z,1.70
2023-10-07T10:02:42.022Z,1.90
2023-10-07T10:03:41.988Z,1.70
2023-10-07T10:04:41.813Z,1.80
2023-10-07T10:05:42.940Z,1.80
2023-10-07T10:06:41.755Z,1.60
2023-10-07T10:07:41.856Z,1.90
2023-10-07T10:08:42.900Z,1.50
2023-10-07T10:09:41.766Z,1.60
2023-10-07T10:10:41.739Z,1.90
2023-10-07T10:11:41.836Z,1.50
2023-10-07T10:12:41.680Z,1.70
2023-10-07T10:13:41.845Z,1.90
2023-10-07T10:14:41.649Z,2.00
2023-10-07T10:15:42.595Z,1.60
2023-10-07T10:16:41.728Z,1.70
2023-10-07T10:17:41.698Z,1.50
2023-10-07T10:18:43.660Z,2.00
2023-10-07T10:19:41.698Z,1.70
2023-10-07T10:20:41.574Z,1.70
2023-10-07T10:21:41.637Z,1.60
2023-10-07T10:22:41.590Z,1.80
2023-10-07T10:23:41.638Z,1.60
2023-10-07T10:24:41.554Z,1.70
2023-10-07T10:25:41.705Z,1.80
2023-10-07T10:26:41.533Z,1.60
2023-10-07T10:27:41.581Z,1.80
2023-10-07T10:28:41.701Z,1.80
2023-10-07T10:29:41.552Z,2.00
2023-10-07T10:30:41.468Z,1.50
2023-10-07T10:31:41.612Z,2.00
2023-10-07T10:32:41.537Z,2.00
2023-10-07T10:33:41.637Z,1.80
2023-10-07T10:34:41.436Z,1.70
2023-10-07T10:35:41.762Z,1.80
2023-10-07T10:36:41.395Z,1.80
2023-10-07T10:37:41.453Z,1.90
2023-10-07T10:38:41.390Z,1.80
2023-10-07T10:39:42.553Z,1.90
2023-10-07T10:40:41.361Z,1.70
2023-10-07T10:41:41.446Z,2.10
2023-10-07T10:42:41.325Z,1.80
2023-10-07T10:43:41.405Z,1.80
2023-10-07T10:44:41.312Z,1.80
2023-10-07T10:45:41.393Z,1.80
2023-10-07T10:46:41.244Z,2.00
2023-10-07T10:47:41.320Z,1.90
2023-10-07T10:48:41.231Z,1.90
2023-10-07T10:49:41.240Z,1.90
2023-10-07T10:50:41.188Z,1.80
2023-10-07T10:51:41.234Z,1.90
2023-10-07T10:52:41.176Z,1.80
2023-10-07T10:53:41.270Z,1.70
2023-10-07T10:54:41.140Z,2.00
2023-10-07T10:55:41.176Z,1.90
2023-10-07T10:56:41.110Z,1.70
2023-10-07T10:57:41.187Z,1.80
2023-10-07T10:58:41.096Z,2.00
2023-10-07T10:59:41.152Z,2.00
2023-10-07T11:00:41.060Z,2.30
2023-10-07T11:01:41.183Z,2.30
2023-10-07T11:02:41.265Z,2.20
2023-10-07T11:03:41.189Z,1.80
2023-10-07T11:04:40.997Z,2.00
2023-10-07T11:05:41.164Z,2.20
2023-10-07T11:06:40.973Z,1.80
2023-10-07T11:07:41.063Z,1.90
2023-10-07T11:08:40.957Z,2.10
2023-10-07T11:09:40.976Z,2.30
2023-10-07T11:10:40.924Z,2.00
2023-10-07T11:11:41.032Z,2.00
2023-10-07T11:12:40.896Z,2.10
2023-10-07T11:13:41.004Z,2.00
2023-10-07T11:14:40.866Z,1.90
2023-10-07T11:15:40.949Z,1.70
2023-10-07T11:16:40.847Z,4.20
2023-10-07T11:17:40.987Z,5.10
2023-10-07T11:18:40.836Z,4.50
2023-10-07T11:19:40.890Z,4.40
2023-10-07T11:20:40.778Z,2.80
2023-10-07T11:21:40.860Z,2.30
2023-10-07T11:22:40.764Z,2.40
2023-10-07T11:23:40.879Z,2.30
2023-10-07T11:24:40.740Z,1.90
2023-10-07T11:25:40.777Z,2.00
2023-10-07T11:26:40.721Z,1.80
2023-10-07T11:27:41.776Z,1.80
2023-10-07T11:28:40.690Z,1.70
2023-10-07T11:29:40.757Z,1.80
2023-10-07T11:30:40.669Z,2.00
2023-10-07T11:31:40.759Z,1.60
2023-10-07T11:32:40.785Z,2.10
2023-10-07T11:33:42.573Z,1.90
2023-10-07T11:34:40.606Z,1.50
2023-10-07T11:35:40.691Z,1.70
2023-10-07T11:36:40.579Z,1.60
2023-10-07T11:37:40.653Z,1.70
2023-10-07T11:38:40.566Z,1.80
2023-10-07T11:39:40.569Z,2.10
2023-10-07T11:40:40.562Z,1.70
2023-10-07T11:41:40.629Z,2.50
2023-10-07T11:42:40.505Z,1.90
2023-10-07T11:43:40.504Z,1.80
2023-10-07T11:44:40.475Z,1.60
2023-10-07T11:45:40.538Z,1.80
2023-10-07T11:46:40.450Z,1.60
2023-10-07T11:47:40.525Z,1.80
2023-10-07T11:48:40.432Z,1.80
2023-10-07T11:49:40.445Z,1.80
2023-10-07T11:50:40.401Z,1.70
2023-10-07T11:51:40.451Z,1.60
2023-10-07T11:52:40.365Z,2.00
2023-10-07T11:53:40.413Z,1.80
2023-10-07T11:54:40.372Z,1.80
2023-10-07T11:55:40.375Z,1.70
2023-10-07T11:56:40.324Z,1.60
2023-10-07T11:57:40.392Z,1.50
2023-10-07T11:58:40.299Z,1.80
2023-10-07T11:59:40.354Z,1.70
2023-10-07T12:00:40.274Z,1.50
2023-10-07T12:01:40.373Z,1.60
2023-10-07T12:02:40.399Z,1.60
2023-10-07T12:03:41.351Z,1.80
2023-10-07T12:04:40.207Z,1.70
2023-10-07T12:05:40.308Z,1.70
2023-10-07T12:06:40.177Z,1.60
2023-10-07T12:07:40.260Z,1.60
2023-10-07T12:08:40.155Z,1.70
2023-10-07T12:09:41.204Z,1.40
2023-10-07T12:10:40.137Z,1.90
2023-10-07T12:11:40.252Z,1.70
2023-10-07T12:12:40.160Z,1.90
2023-10-07T12:13:40.206Z,1.70
2023-10-07T12:14:40.079Z,1.60
2023-10-07T12:15:49.231Z,1.50
2023-10-07T12:16:41.178Z,1.50
2023-10-07T12:17:40.138Z,1.70
2023-10-07T12:18:40.135Z,2.10
2023-10-07T12:19:40.010Z,1.70
2023-10-07T12:20:40.045Z,1.60
2023-10-07T12:21:39.989Z,1.50
2023-10-07T12:22:40.022Z,1.50
2023-10-07T12:23:39.963Z,1.20
2023-10-07T12:24:40.075Z,1.40
2023-10-07T12:25:39.929Z,1.40
2023-10-07T12:26:40.004Z,1.20
2023-10-07T12:27:39.909Z,1.30
2023-10-07T12:28:39.976Z,1.20
2023-10-07T12:29:39.881Z,1.60
2023-10-07T12:30:39.916Z,1.50
2023-10-07T12:31:39.880Z,1.50
2023-10-07T12:32:39.986Z,1.40
2023-10-07T12:33:39.849Z,1.50
2023-10-07T12:34:40.151Z,1.40
2023-10-07T12:35:39.821Z,1.60
2023-10-07T12:36:39.859Z,1.60
2023-10-07T12:37:39.798Z,1.20
2023-10-07T12:38:39.869Z,1.20
2023-10-07T12:39:39.747Z,1.60
2023-10-07T12:40:39.839Z,1.40
2023-10-07T12:41:39.732Z,1.70
2023-10-07T12:42:39.798Z,1.60
2023-10-07T12:43:39.892Z,1.40
2023-10-07T12:44:40.094Z,1.50
2023-10-07T12:45:40.084Z,1.60
2023-10-07T12:46:39.713Z,1.70
2023-10-07T12:47:39.827Z,1.30
2023-10-07T12:48:39.636Z,1.40
2023-10-07T12:49:40.674Z,1.50
2023-10-07T12:50:39.607Z,1.50
2023-10-07T12:51:39.662Z,1.50
2023-10-07T12:52:39.593Z,1.60
2023-10-07T12:53:42.700Z,1.60
2023-10-07T12:54:39.557Z,1.50
2023-10-07T12:55:40.412Z,1.50
2023-10-07T12:56:41.524Z,1.60
2023-10-07T12:57:39.603Z,1.50
2023-10-07T12:58:39.529Z,1.50
2023-10-07T12:59:39.514Z,1.30
2023-10-07T13:00:39.486Z,1.40
2023-10-07T13:01:39.551Z,1.40
2023-10-07T13:02:39.620Z,1.60
2023-10-07T13:03:39.626Z,1.40
2023-10-07T13:04:39.439Z,1.30
2023-10-07T13:05:39.625Z,1.40
2023-10-07T13:06:39.393Z,1.40
2023-10-07T13:07:39.472Z,1.40
2023-10-07T13:08:39.371Z,1.50
2023-10-07T13:09:39.405Z,1.40
2023-10-07T13:10:39.358Z,1.40
2023-10-07T13:11:39.395Z,1.40
2023-10-07T13:12:39.336Z,1.20
2023-10-07T13:13:39.407Z,1.30
2023-10-07T13:14:39.289Z,1.30
2023-10-07T13:15:39.380Z,1.30
2023-10-07T13:16:39.305Z,1.40
2023-10-07T13:17:39.444Z,1.40
2023-10-07T13:18:39.239Z,1.20